sensor_id;sensor_type;location;lat;lon;timestamp;temperature;humidity
45843;DHT22;31563;51.744;8.252;2023-04-28T00:00:03;21.10;31.80
45843;DHT22;31563;51.744;8.252;2023-04-28T00:02:31;21.10;31.90
45843;DHT22;31563;51.744;8.252;2023-04-28T00:05:02;21.10;31.90
45843;DHT22;31563;51.744;8.252;2023-04-28T00:07:30;21.00;31.70
45843;DHT22;31563;51.744;8.252;2023-04-28T00:09:58;21.10;31.90
45843;DHT22;31563;51.744;8.252;2023-04-28T00:12:26;21.00;31.80
45843;DHT22;31563;51.744;8.252;2023-04-28T00:14:54;21.00;31.70
45843;DHT22;31563;51.744;8.252;2023-04-28T00:17:22;21.00;31.80
45843;DHT22;31563;51.744;8.252;2023-04-28T00:19:51;21.00;31.90
45843;DHT22;31563;51.744;8.252;2023-04-28T00:22:21;21.00;31.90
45843;DHT22;31563;51.744;8.252;2023-04-28T00:24:49;20.90;31.90
45843;DHT22;31563;51.744;8.252;2023-04-28T00:27:17;20.90;31.90
45843;DHT22;31563;51.744;8.252;2023-04-28T00:29:46;21.00;32.00
45843;DHT22;31563;51.744;8.252;2023-04-28T00:32:14;21.00;32.00
45843;DHT22;31563;51.744;8.252;2023-04-28T00:34:42;20.90;32.00
45843;DHT22;31563;51.744;8.252;2023-04-28T00:37:10;20.90;32.60
45843;DHT22;31563;51.744;8.252;2023-04-28T00:39:40;20.90;32.90
45843;DHT22;31563;51.744;8.252;2023-04-28T00:42:11;20.90;32.80
45843;DHT22;31563;51.744;8.252;2023-04-28T00:44:39;20.90;33.10
45843;DHT22;31563;51.744;8.252;2023-04-28T00:47:08;20.90;32.90
45843;DHT22;31563;51.744;8.252;2023-04-28T00:49:37;20.90;33.00
45843;DHT22;31563;51.744;8.252;2023-04-28T00:52:05;20.90;33.00
45843;DHT22;31563;51.744;8.252;2023-04-28T00:54:33;20.90;33.00
45843;DHT22;31563;51.744;8.252;2023-04-28T00:57:03;20.80;33.00
45843;DHT22;31563;51.744;8.252;2023-04-28T00:59:31;20.80;33.00
45843;DHT22;31563;51.744;8.252;2023-04-28T01:01:59;20.80;33.00
45843;DHT22;31563;51.744;8.252;2023-04-28T01:04:28;20.80;33.00
45843;DHT22;31563;51.744;8.252;2023-04-28T01:06:59;20.80;33.10
45843;DHT22;31563;51.744;8.252;2023-04-28T01:09:27;20.80;33.00
45843;DHT22;31563;51.744;8.252;2023-04-28T01:11:55;20.80;33.00
45843;DHT22;31563;51.744;8.252;2023-04-28T01:14:25;20.70;33.10
45843;DHT22;31563;51.744;8.252;2023-04-28T01:16:53;20.70;33.10
45843;DHT22;31563;51.744;8.252;2023-04-28T01:19:22;20.70;33.20
45843;DHT22;31563;51.744;8.252;2023-04-28T01:21:51;20.70;33.10
45843;DHT22;31563;51.744;8.252;2023-04-28T01:24:20;20.70;33.20
45843;DHT22;31563;51.744;8.252;2023-04-28T01:26:48;20.70;33.10
45843;DHT22;31563;51.744;8.252;2023-04-28T01:29:16;20.70;33.10
45843;DHT22;31563;51.744;8.252;2023-04-28T01:31:44;20.70;33.20
45843;DHT22;31563;51.744;8.252;2023-04-28T01:34:13;20.60;33.20
45843;DHT22;31563;51.744;8.252;2023-04-28T01:36:41;20.70;33.20
45843;DHT22;31563;51.744;8.252;2023-04-28T01:39:09;20.60;33.10
45843;DHT22;31563;51.744;8.252;2023-04-28T01:41:38;20.60;33.10
45843;DHT22;31563;51.744;8.252;2023-04-28T01:44:07;20.60;33.10
45843;DHT22;31563;51.744;8.252;2023-04-28T01:46:35;20.60;33.10
45843;DHT22;31563;51.744;8.252;2023-04-28T01:49:03;20.60;33.20
45843;DHT22;31563;51.744;8.252;2023-04-28T01:51:31;20.60;33.10
45843;DHT22;31563;51.744;8.252;2023-04-28T01:53:59;20.60;33.20
45843;DHT22;31563;51.744;8.252;2023-04-28T01:56:27;20.50;33.10
45843;DHT22;31563;51.744;8.252;2023-04-28T01:58:57;20.50;33.10
45843;DHT22;31563;51.744;8.252;2023-04-28T02:01:25;20.50;33.10
45843;DHT22;31563;51.744;8.252;2023-04-28T02:03:53;20.50;33.10
45843;DHT22;31563;51.744;8.252;2023-04-28T02:06:22;20.50;33.10
45843;DHT22;31563;51.744;8.252;2023-04-28T02:08:50;20.50;33.10
45843;DHT22;31563;51.744;8.252;2023-04-28T02:11:18;20.50;33.10
45843;DHT22;31563;51.744;8.252;2023-04-28T02:13:46;20.50;33.20
45843;DHT22;31563;51.744;8.252;2023-04-28T02:16:16;20.40;33.10
45843;DHT22;31563;51.744;8.252;2023-04-28T02:18:44;20.40;33.10
45843;DHT22;31563;51.744;8.252;2023-04-28T02:21:12;20.40;33.10
45843;DHT22;31563;51.744;8.252;2023-04-28T02:23:40;20.40;33.10
45843;DHT22;31563;51.744;8.252;2023-04-28T02:26:08;20.40;33.20
45843;DHT22;31563;51.744;8.252;2023-04-28T02:28:36;20.40;33.10
45843;DHT22;31563;51.744;8.252;2023-04-28T02:31:06;20.40;33.20
45843;DHT22;31563;51.744;8.252;2023-04-28T02:33:36;20.40;33.20
45843;DHT22;31563;51.744;8.252;2023-04-28T02:36:05;20.40;33.10
45843;DHT22;31563;51.744;8.252;2023-04-28T02:38:34;20.30;33.20
45843;DHT22;31563;51.744;8.252;2023-04-28T02:41:04;20.30;33.20
45843;DHT22;31563;51.744;8.252;2023-04-28T02:43:32;20.30;33.20
45843;DHT22;31563;51.744;8.252;2023-04-28T02:46:01;20.30;33.20
45843;DHT22;31563;51.744;8.252;2023-04-28T02:48:29;20.30;33.30
45843;DHT22;31563;51.744;8.252;2023-04-28T02:51:00;20.30;33.30
45843;DHT22;31563;51.744;8.252;2023-04-28T02:53:28;20.30;33.30
45843;DHT22;31563;51.744;8.252;2023-04-28T02:55:56;20.30;33.20
45843;DHT22;31563;51.744;8.252;2023-04-28T02:58:25;20.30;33.30
45843;DHT22;31563;51.744;8.252;2023-04-28T03:00:53;20.30;33.30
45843;DHT22;31563;51.744;8.252;2023-04-28T03:03:21;20.30;33.30
45843;DHT22;31563;51.744;8.252;2023-04-28T03:05:49;20.30;33.30
45843;DHT22;31563;51.744;8.252;2023-04-28T03:08:19;20.30;33.30
45843;DHT22;31563;51.744;8.252;2023-04-28T03:10:48;20.20;33.30
45843;DHT22;31563;51.744;8.252;2023-04-28T03:13:17;20.30;33.30
45843;DHT22;31563;51.744;8.252;2023-04-28T03:15:45;20.20;33.30
45843;DHT22;31563;51.744;8.252;2023-04-28T03:18:13;20.20;33.30
45843;DHT22;31563;51.744;8.252;2023-04-28T03:20:43;20.20;33.30
45843;DHT22;31563;51.744;8.252;2023-04-28T03:23:11;20.20;33.30
45843;DHT22;31563;51.744;8.252;2023-04-28T03:25:40;20.20;33.40
45843;DHT22;31563;51.744;8.252;2023-04-28T03:28:08;20.20;33.40
45843;DHT22;31563;51.744;8.252;2023-04-28T03:30:37;20.20;33.40
45843;DHT22;31563;51.744;8.252;2023-04-28T03:33:05;20.20;33.40
45843;DHT22;31563;51.744;8.252;2023-04-28T03:35:34;20.10;33.30
45843;DHT22;31563;51.744;8.252;2023-04-28T03:38:02;20.10;33.40
45843;DHT22;31563;51.744;8.252;2023-04-28T03:40:30;20.10;33.30
45843;DHT22;31563;51.744;8.252;2023-04-28T03:43:00;20.10;33.40
45843;DHT22;31563;51.744;8.252;2023-04-28T03:45:30;20.10;33.40
45843;DHT22;31563;51.744;8.252;2023-04-28T03:47:58;20.10;33.30
45843;DHT22;31563;51.744;8.252;2023-04-28T03:50:26;20.10;33.40
45843;DHT22;31563;51.744;8.252;2023-04-28T03:52:54;20.10;33.30
45843;DHT22;31563;51.744;8.252;2023-04-28T03:55:24;20.10;33.40
45843;DHT22;31563;51.744;8.252;2023-04-28T03:57:52;20.10;33.40
45843;DHT22;31563;51.744;8.252;2023-04-28T04:00:22;20.10;33.40
45843;DHT22;31563;51.744;8.252;2023-04-28T04:02:50;20.10;33.50
45843;DHT22;31563;51.744;8.252;2023-04-28T04:05:19;20.00;33.40
45843;DHT22;31563;51.744;8.252;2023-04-28T04:07:47;20.00;33.40
45843;DHT22;31563;51.744;8.252;2023-04-28T04:10:15;20.00;33.50
45843;DHT22;31563;51.744;8.252;2023-04-28T04:12:44;20.00;33.50
45843;DHT22;31563;51.744;8.252;2023-04-28T04:15:12;20.00;33.50
45843;DHT22;31563;51.744;8.252;2023-04-28T04:17:41;20.00;33.50
45843;DHT22;31563;51.744;8.252;2023-04-28T04:20:10;19.90;33.50
45843;DHT22;31563;51.744;8.252;2023-04-28T04:22:38;19.90;33.50
45843;DHT22;31563;51.744;8.252;2023-04-28T04:25:07;19.90;33.60
45843;DHT22;31563;51.744;8.252;2023-04-28T04:27:35;19.90;34.30
45843;DHT22;31563;51.744;8.252;2023-04-28T04:30:04;20.00;36.40
45843;DHT22;31563;51.744;8.252;2023-04-28T04:32:32;20.00;36.50
45843;DHT22;31563;51.744;8.252;2023-04-28T04:35:02;20.00;36.70
45843;DHT22;31563;51.744;8.252;2023-04-28T04:37:30;20.00;37.20
45843;DHT22;31563;51.744;8.252;2023-04-28T04:39:59;20.00;38.00
45843;DHT22;31563;51.744;8.252;2023-04-28T04:42:27;20.10;38.10
45843;DHT22;31563;51.744;8.252;2023-04-28T04:44:55;20.00;37.90
45843;DHT22;31563;51.744;8.252;2023-04-28T04:47:23;19.80;38.50
45843;DHT22;31563;51.744;8.252;2023-04-28T04:49:52;19.60;39.00
45843;DHT22;31563;51.744;8.252;2023-04-28T04:52:21;19.30;40.40
45843;DHT22;31563;51.744;8.252;2023-04-28T04:54:49;19.10;40.60
45843;DHT22;31563;51.744;8.252;2023-04-28T04:57:18;19.00;41.20
45843;DHT22;31563;51.744;8.252;2023-04-28T04:59:46;18.90;41.80
45843;DHT22;31563;51.744;8.252;2023-04-28T05:02:14;18.70;41.70
45843;DHT22;31563;51.744;8.252;2023-04-28T05:04:42;18.70;42.40
45843;DHT22;31563;51.744;8.252;2023-04-28T05:07:10;18.60;42.70
45843;DHT22;31563;51.744;8.252;2023-04-28T05:09:40;18.50;42.90
45843;DHT22;31563;51.744;8.252;2023-04-28T05:12:09;18.50;43.30
45843;DHT22;31563;51.744;8.252;2023-04-28T05:14:37;18.40;43.10
45843;DHT22;31563;51.744;8.252;2023-04-28T05:17:05;18.60;43.20
45843;DHT22;31563;51.744;8.252;2023-04-28T05:19:33;18.70;43.50
45843;DHT22;31563;51.744;8.252;2023-04-28T05:22:02;18.80;43.30
45843;DHT22;31563;51.744;8.252;2023-04-28T05:24:30;18.80;43.00
45843;DHT22;31563;51.744;8.252;2023-04-28T05:27:00;18.90;42.80
45843;DHT22;31563;51.744;8.252;2023-04-28T05:29:28;19.00;42.50
45843;DHT22;31563;51.744;8.252;2023-04-28T05:31:56;19.00;42.20
45843;DHT22;31563;51.744;8.252;2023-04-28T05:34:24;19.10;42.30
45843;DHT22;31563;51.744;8.252;2023-04-28T05:36:53;19.10;42.20
45843;DHT22;31563;51.744;8.252;2023-04-28T05:39:21;19.10;42.10
45843;DHT22;31563;51.744;8.252;2023-04-28T05:41:49;19.20;42.00
45843;DHT22;31563;51.744;8.252;2023-04-28T05:44:18;19.20;41.90
45843;DHT22;31563;51.744;8.252;2023-04-28T05:46:46;19.20;41.70
45843;DHT22;31563;51.744;8.252;2023-04-28T05:49:15;19.20;41.80
45843;DHT22;31563;51.744;8.252;2023-04-28T05:51:43;19.20;41.70
45843;DHT22;31563;51.744;8.252;2023-04-28T05:54:11;19.30;41.70
45843;DHT22;31563;51.744;8.252;2023-04-28T05:56:39;19.20;41.60
45843;DHT22;31563;51.744;8.252;2023-04-28T05:59:07;19.30;41.60
45843;DHT22;31563;51.744;8.252;2023-04-28T06:01:37;19.30;41.50
45843;DHT22;31563;51.744;8.252;2023-04-28T06:04:05;19.40;41.40
45843;DHT22;31563;51.744;8.252;2023-04-28T06:06:34;19.40;41.30
45843;DHT22;31563;51.744;8.252;2023-04-28T06:09:02;19.40;41.20
45843;DHT22;31563;51.744;8.252;2023-04-28T06:11:30;19.40;41.10
45843;DHT22;31563;51.744;8.252;2023-04-28T06:13:58;19.40;41.60
45843;DHT22;31563;51.744;8.252;2023-04-28T06:16:27;19.30;42.60
45843;DHT22;31563;51.744;8.252;2023-04-28T06:18:57;19.20;42.90
45843;DHT22;31563;51.744;8.252;2023-04-28T06:21:25;19.00;43.30
45843;DHT22;31563;51.744;8.252;2023-04-28T06:23:54;19.00;43.80
45843;DHT22;31563;51.744;8.252;2023-04-28T06:26:23;19.00;44.20
45843;DHT22;31563;51.744;8.252;2023-04-28T06:28:51;19.00;44.50
45843;DHT22;31563;51.744;8.252;2023-04-28T06:31:19;19.00;45.10
45843;DHT22;31563;51.744;8.252;2023-04-28T06:33:47;18.90;45.60
45843;DHT22;31563;51.744;8.252;2023-04-28T06:36:17;19.00;45.50
45843;DHT22;31563;51.744;8.252;2023-04-28T06:38:45;19.00;46.10
45843;DHT22;31563;51.744;8.252;2023-04-28T06:41:13;19.10;46.40
45843;DHT22;31563;51.744;8.252;2023-04-28T06:43:41;19.30;46.00
45843;DHT22;31563;51.744;8.252;2023-04-28T06:46:09;19.40;46.50
45843;DHT22;31563;51.744;8.252;2023-04-28T06:48:38;19.50;46.60
45843;DHT22;31563;51.744;8.252;2023-04-28T06:51:06;19.70;46.30
45843;DHT22;31563;51.744;8.252;2023-04-28T06:53:35;19.70;45.90
45843;DHT22;31563;51.744;8.252;2023-04-28T06:56:05;19.80;45.80
45843;DHT22;31563;51.744;8.252;2023-04-28T06:58:36;19.90;46.40
45843;DHT22;31563;51.744;8.252;2023-04-28T07:01:04;20.20;46.30
45843;DHT22;31563;51.744;8.252;2023-04-28T07:03:32;20.30;46.30
45843;DHT22;31563;51.744;8.252;2023-04-28T07:06:00;20.30;46.30
45843;DHT22;31563;51.744;8.252;2023-04-28T07:08:30;20.30;46.10
45843;DHT22;31563;51.744;8.252;2023-04-28T07:10:59;20.30;46.10
45843;DHT22;31563;51.744;8.252;2023-04-28T07:13:30;20.30;45.90
45843;DHT22;31563;51.744;8.252;2023-04-28T07:15:59;20.30;45.70
45843;DHT22;31563;51.744;8.252;2023-04-28T07:18:27;20.30;45.60
45843;DHT22;31563;51.744;8.252;2023-04-28T07:20:55;20.30;45.40
45843;DHT22;31563;51.744;8.252;2023-04-28T07:23:23;20.40;45.30
45843;DHT22;31563;51.744;8.252;2023-04-28T07:25:51;20.40;45.10
45843;DHT22;31563;51.744;8.252;2023-04-28T07:28:21;20.40;45.10
45843;DHT22;31563;51.744;8.252;2023-04-28T07:30:49;20.50;45.00
45843;DHT22;31563;51.744;8.252;2023-04-28T07:33:17;20.50;44.70
45843;DHT22;31563;51.744;8.252;2023-04-28T07:35:46;20.60;44.70
45843;DHT22;31563;51.744;8.252;2023-04-28T07:38:15;20.70;44.60
45843;DHT22;31563;51.744;8.252;2023-04-28T07:40:44;20.80;44.50
45843;DHT22;31563;51.744;8.252;2023-04-28T07:43:12;20.90;44.20
45843;DHT22;31563;51.744;8.252;2023-04-28T07:45:42;21.00;44.10
45843;DHT22;31563;51.744;8.252;2023-04-28T07:48:11;21.10;43.80
45843;DHT22;31563;51.744;8.252;2023-04-28T07:50:39;21.10;43.70
45843;DHT22;31563;51.744;8.252;2023-04-28T07:53:08;21.20;43.40
45843;DHT22;31563;51.744;8.252;2023-04-28T07:55:36;21.20;43.30
45843;DHT22;31563;51.744;8.252;2023-04-28T07:58:04;21.20;43.20
45843;DHT22;31563;51.744;8.252;2023-04-28T08:00:32;21.20;43.10
45843;DHT22;31563;51.744;8.252;2023-04-28T08:03:02;21.10;43.10
45843;DHT22;31563;51.744;8.252;2023-04-28T08:05:30;21.10;43.10
45843;DHT22;31563;51.744;8.252;2023-04-28T08:07:59;21.20;43.10
45843;DHT22;31563;51.744;8.252;2023-04-28T08:10:27;21.20;43.40
45843;DHT22;31563;51.744;8.252;2023-04-28T08:12:55;21.30;43.90
45843;DHT22;31563;51.744;8.252;2023-04-28T08:15:23;21.40;44.70
45843;DHT22;31563;51.744;8.252;2023-04-28T08:17:53;21.60;45.10
45843;DHT22;31563;51.744;8.252;2023-04-28T08:20:22;20.60;48.50
45843;DHT22;31563;51.744;8.252;2023-04-28T08:22:51;20.10;50.90
45843;DHT22;31563;51.744;8.252;2023-04-28T08:25:19;19.90;52.30
45843;DHT22;31563;51.744;8.252;2023-04-28T08:27:47;19.80;53.60
45843;DHT22;31563;51.744;8.252;2023-04-28T08:30:15;19.90;55.00
45843;DHT22;31563;51.744;8.252;2023-04-28T08:32:43;19.80;55.90
45843;DHT22;31563;51.744;8.252;2023-04-28T08:35:11;19.80;56.90
45843;DHT22;31563;51.744;8.252;2023-04-28T08:37:42;19.90;58.10
45843;DHT22;31563;51.744;8.252;2023-04-28T08:40:11;19.90;59.00
45843;DHT22;31563;51.744;8.252;2023-04-28T08:42:40;19.90;59.80
45843;DHT22;31563;51.744;8.252;2023-04-28T08:45:13;19.90;60.50
45843;DHT22;31563;51.744;8.252;2023-04-28T08:47:41;19.90;62.00
45843;DHT22;31563;51.744;8.252;2023-04-28T08:50:12;20.00;63.50
45843;DHT22;31563;51.744;8.252;2023-04-28T08:52:42;20.00;64.90
45843;DHT22;31563;51.744;8.252;2023-04-28T08:55:11;20.00;66.40
45843;DHT22;31563;51.744;8.252;2023-04-28T08:57:43;20.00;67.90
45843;DHT22;31563;51.744;8.252;2023-04-28T09:00:12;20.00;69.10
45843;DHT22;31563;51.744;8.252;2023-04-28T09:02:40;20.10;70.60
45843;DHT22;31563;51.744;8.252;2023-04-28T09:05:10;20.20;69.70
45843;DHT22;31563;51.744;8.252;2023-04-28T09:07:39;20.50;62.30
45843;DHT22;31563;51.744;8.252;2023-04-28T09:10:19;20.40;58.60
45843;DHT22;31563;51.744;8.252;2023-04-28T09:12:50;20.30;57.00
45843;DHT22;31563;51.744;8.252;2023-04-28T09:15:29;20.30;57.20
45843;DHT22;31563;51.744;8.252;2023-04-28T09:18:00;20.30;56.90
45843;DHT22;31563;51.744;8.252;2023-04-28T09:20:31;20.30;55.90
45843;DHT22;31563;51.744;8.252;2023-04-28T09:23:15;20.30;55.70
45843;DHT22;31563;51.744;8.252;2023-04-28T09:25:59;20.30;55.10
45843;DHT22;31563;51.744;8.252;2023-04-28T09:28:27;20.40;54.80
45843;DHT22;31563;51.744;8.252;2023-04-28T09:30:55;20.50;54.90
45843;DHT22;31563;51.744;8.252;2023-04-28T09:33:24;20.70;54.20
45843;DHT22;31563;51.744;8.252;2023-04-28T09:35:52;21.00;54.50
45843;DHT22;31563;51.744;8.252;2023-04-28T09:38:21;21.20;53.10
45843;DHT22;31563;51.744;8.252;2023-04-28T09:40:52;21.40;52.30
45843;DHT22;31563;51.744;8.252;2023-04-28T09:43:26;21.50;51.60
45843;DHT22;31563;51.744;8.252;2023-04-28T09:45:57;21.60;51.30
45843;DHT22;31563;51.744;8.252;2023-04-28T09:48:29;21.70;50.90
45843;DHT22;31563;51.744;8.252;2023-04-28T09:50:59;21.90;50.20
45843;DHT22;31563;51.744;8.252;2023-04-28T09:53:29;22.20;50.70
45843;DHT22;31563;51.744;8.252;2023-04-28T09:55:58;22.20;49.40
45843;DHT22;31563;51.744;8.252;2023-04-28T09:58:28;22.20;49.00
45843;DHT22;31563;51.744;8.252;2023-04-28T10:00:59;22.40;48.80
45843;DHT22;31563;51.744;8.252;2023-04-28T10:03:29;22.60;48.50
45843;DHT22;31563;51.744;8.252;2023-04-28T10:05:58;22.90;48.40
45843;DHT22;31563;51.744;8.252;2023-04-28T10:08:26;23.20;47.70
45843;DHT22;31563;51.744;8.252;2023-04-28T10:10:55;23.60;47.30
45843;DHT22;31563;51.744;8.252;2023-04-28T10:13:24;24.10;46.40
45843;DHT22;31563;51.744;8.252;2023-04-28T10:15:54;24.50;45.80
45843;DHT22;31563;51.744;8.252;2023-04-28T10:18:24;25.00;45.40
45843;DHT22;31563;51.744;8.252;2023-04-28T10:20:56;25.60;44.50
45843;DHT22;31563;51.744;8.252;2023-04-28T10:23:45;25.80;43.60
45843;DHT22;31563;51.744;8.252;2023-04-28T10:26:15;25.90;44.10
45843;DHT22;31563;51.744;8.252;2023-04-28T10:28:46;26.00;43.80
45843;DHT22;31563;51.744;8.252;2023-04-28T10:31:16;26.30;43.50
45843;DHT22;31563;51.744;8.252;2023-04-28T10:33:47;26.60;43.30
45843;DHT22;31563;51.744;8.252;2023-04-28T10:36:45;26.90;42.90
45843;DHT22;31563;51.744;8.252;2023-04-28T10:39:14;27.10;43.10
45843;DHT22;31563;51.744;8.252;2023-04-28T10:41:44;27.40;41.80
45843;DHT22;31563;51.744;8.252;2023-04-28T10:44:40;27.30;41.30
45843;DHT22;31563;51.744;8.252;2023-04-28T10:47:10;27.00;41.30
45843;DHT22;31563;51.744;8.252;2023-04-28T10:50:08;26.90;41.10
45843;DHT22;31563;51.744;8.252;2023-04-28T10:52:49;26.80;41.70
45843;DHT22;31563;51.744;8.252;2023-04-28T10:55:30;26.90;41.50
45843;DHT22;31563;51.744;8.252;2023-04-28T10:58:29;27.10;41.70
45843;DHT22;31563;51.744;8.252;2023-04-28T11:01:25;27.50;41.70
45843;DHT22;31563;51.744;8.252;2023-04-28T11:03:56;27.80;41.00
45843;DHT22;31563;51.744;8.252;2023-04-28T11:06:31;27.90;40.40
45843;DHT22;31563;51.744;8.252;2023-04-28T11:09:01;27.80;39.80
45843;DHT22;31563;51.744;8.252;2023-04-28T11:11:31;27.70;39.60
45843;DHT22;31563;51.744;8.252;2023-04-28T11:14:30;27.60;39.50
45843;DHT22;31563;51.744;8.252;2023-04-28T11:17:00;27.30;39.60
45843;DHT22;31563;51.744;8.252;2023-04-28T11:19:32;27.20;39.70
45843;DHT22;31563;51.744;8.252;2023-04-28T11:22:02;27.00;39.70
45843;DHT22;31563;51.744;8.252;2023-04-28T11:24:30;26.80;39.80
45843;DHT22;31563;51.744;8.252;2023-04-28T11:26:59;26.70;40.10
45843;DHT22;31563;51.744;8.252;2023-04-28T11:29:31;26.60;40.00
45843;DHT22;31563;51.744;8.252;2023-04-28T11:32:01;26.70;40.40
45843;DHT22;31563;51.744;8.252;2023-04-28T11:34:31;26.70;40.30
45843;DHT22;31563;51.744;8.252;2023-04-28T11:37:00;26.90;40.20
45843;DHT22;31563;51.744;8.252;2023-04-28T11:39:30;26.90;40.10
45843;DHT22;31563;51.744;8.252;2023-04-28T11:41:58;26.90;40.10
45843;DHT22;31563;51.744;8.252;2023-04-28T11:44:29;26.90;39.90
45843;DHT22;31563;51.744;8.252;2023-04-28T11:46:59;26.90;39.90
45843;DHT22;31563;51.744;8.252;2023-04-28T11:49:31;26.80;39.90
45843;DHT22;31563;51.744;8.252;2023-04-28T11:52:08;26.70;39.70
45843;DHT22;31563;51.744;8.252;2023-04-28T11:54:37;26.60;39.70
45843;DHT22;31563;51.744;8.252;2023-04-28T11:57:05;26.50;39.70
45843;DHT22;31563;51.744;8.252;2023-04-28T11:59:34;26.40;39.70
45843;DHT22;31563;51.744;8.252;2023-04-28T12:02:05;26.40;39.90
45843;DHT22;31563;51.744;8.252;2023-04-28T12:04:37;26.40;40.10
45843;DHT22;31563;51.744;8.252;2023-04-28T12:07:07;26.40;40.00
45843;DHT22;31563;51.744;8.252;2023-04-28T12:09:37;26.30;39.90
45843;DHT22;31563;51.744;8.252;2023-04-28T12:12:06;26.30;39.90
45843;DHT22;31563;51.744;8.252;2023-04-28T12:14:52;26.20;39.80
45843;DHT22;31563;51.744;8.252;2023-04-28T12:17:24;26.10;39.70
45843;DHT22;31563;51.744;8.252;2023-04-28T12:19:55;26.10;39.90
45843;DHT22;31563;51.744;8.252;2023-04-28T12:22:24;26.00;40.00
45843;DHT22;31563;51.744;8.252;2023-04-28T12:25:03;26.00;39.90
45843;DHT22;31563;51.744;8.252;2023-04-28T12:27:32;26.10;40.00
45843;DHT22;31563;51.744;8.252;2023-04-28T12:30:23;26.10;40.00
45843;DHT22;31563;51.744;8.252;2023-04-28T12:32:52;26.10;40.00
45843;DHT22;31563;51.744;8.252;2023-04-28T12:35:23;26.10;39.90
45843;DHT22;31563;51.744;8.252;2023-04-28T12:37:52;26.10;39.80
45843;DHT22;31563;51.744;8.252;2023-04-28T12:40:21;26.10;39.90
45843;DHT22;31563;51.744;8.252;2023-04-28T12:42:50;26.10;39.80
45843;DHT22;31563;51.744;8.252;2023-04-28T12:45:18;26.10;39.90
45843;DHT22;31563;51.744;8.252;2023-04-28T12:47:46;26.00;39.80
45843;DHT22;31563;51.744;8.252;2023-04-28T12:50:15;25.90;39.70
45843;DHT22;31563;51.744;8.252;2023-04-28T12:52:44;25.80;39.80
45843;DHT22;31563;51.744;8.252;2023-04-28T12:55:12;25.70;39.90
45843;DHT22;31563;51.744;8.252;2023-04-28T12:57:41;25.60;40.00
45843;DHT22;31563;51.744;8.252;2023-04-28T13:00:10;25.60;40.00
45843;DHT22;31563;51.744;8.252;2023-04-28T13:02:42;25.50;40.20
45843;DHT22;31563;51.744;8.252;2023-04-28T13:05:11;25.50;40.30
45843;DHT22;31563;51.744;8.252;2023-04-28T13:07:40;25.40;40.30
45843;DHT22;31563;51.744;8.252;2023-04-28T13:10:10;25.40;40.30
45843;DHT22;31563;51.744;8.252;2023-04-28T13:12:39;25.40;40.30
45843;DHT22;31563;51.744;8.252;2023-04-28T13:15:09;25.30;40.30
45843;DHT22;31563;51.744;8.252;2023-04-28T13:17:37;25.30;40.40
45843;DHT22;31563;51.744;8.252;2023-04-28T13:20:07;25.20;40.40
45843;DHT22;31563;51.744;8.252;2023-04-28T13:22:35;25.20;40.60
45843;DHT22;31563;51.744;8.252;2023-04-28T13:25:04;25.20;40.60
45843;DHT22;31563;51.744;8.252;2023-04-28T13:27:34;25.20;40.50
45843;DHT22;31563;51.744;8.252;2023-04-28T13:30:04;25.10;40.50
45843;DHT22;31563;51.744;8.252;2023-04-28T13:32:34;25.10;40.60
45843;DHT22;31563;51.744;8.252;2023-04-28T13:35:03;25.00;40.70
45843;DHT22;31563;51.744;8.252;2023-04-28T13:37:31;25.00;40.80
45843;DHT22;31563;51.744;8.252;2023-04-28T13:39:59;24.90;40.80
45843;DHT22;31563;51.744;8.252;2023-04-28T13:42:30;24.80;40.90
45843;DHT22;31563;51.744;8.252;2023-04-28T13:44:59;24.70;41.10
45843;DHT22;31563;51.744;8.252;2023-04-28T13:47:27;24.70;41.20
45843;DHT22;31563;51.744;8.252;2023-04-28T13:49:58;24.70;41.40
45843;DHT22;31563;51.744;8.252;2023-04-28T13:52:27;24.80;41.50
45843;DHT22;31563;51.744;8.252;2023-04-28T13:54:55;25.10;41.30
45843;DHT22;31563;51.744;8.252;2023-04-28T13:57:23;25.20;41.00
45843;DHT22;31563;51.744;8.252;2023-04-28T13:59:51;25.20;40.70
45843;DHT22;31563;51.744;8.252;2023-04-28T14:02:21;25.00;44.40
45843;DHT22;31563;51.744;8.252;2023-04-28T14:04:50;24.90;45.10
45843;DHT22;31563;51.744;8.252;2023-04-28T14:07:19;24.60;46.10
45843;DHT22;31563;51.744;8.252;2023-04-28T14:09:48;24.60;46.60
45843;DHT22;31563;51.744;8.252;2023-04-28T14:12:16;24.60;46.40
45843;DHT22;31563;51.744;8.252;2023-04-28T14:14:45;24.90;46.40
45843;DHT22;31563;51.744;8.252;2023-04-28T14:17:15;25.20;45.90
45843;DHT22;31563;51.744;8.252;2023-04-28T14:19:44;25.30;45.20
45843;DHT22;31563;51.744;8.252;2023-04-28T14:22:13;25.40;45.00
45843;DHT22;31563;51.744;8.252;2023-04-28T14:24:41;25.40;44.70
45843;DHT22;31563;51.744;8.252;2023-04-28T14:27:10;25.40;44.60
45843;DHT22;31563;51.744;8.252;2023-04-28T14:29:38;25.30;44.60
45843;DHT22;31563;51.744;8.252;2023-04-28T14:32:07;25.40;44.70
45843;DHT22;31563;51.744;8.252;2023-04-28T14:34:35;25.40;44.60
45843;DHT22;31563;51.744;8.252;2023-04-28T14:37:05;25.50;44.80
45843;DHT22;31563;51.744;8.252;2023-04-28T14:39:33;26.10;45.20
45843;DHT22;31563;51.744;8.252;2023-04-28T14:42:02;26.60;44.20
45843;DHT22;31563;51.744;8.252;2023-04-28T14:44:31;27.40;42.50
45843;DHT22;31563;51.744;8.252;2023-04-28T14:47:00;27.90;43.20
45843;DHT22;31563;51.744;8.252;2023-04-28T14:49:28;28.90;42.50
45843;DHT22;31563;51.744;8.252;2023-04-28T14:51:56;29.80;40.00
45843;DHT22;31563;51.744;8.252;2023-04-28T14:54:27;29.90;39.30
45843;DHT22;31563;51.744;8.252;2023-04-28T14:56:55;29.70;38.80
45843;DHT22;31563;51.744;8.252;2023-04-28T14:59:24;29.60;39.60
45843;DHT22;31563;51.744;8.252;2023-04-28T15:01:53;30.30;39.60
45843;DHT22;31563;51.744;8.252;2023-04-28T15:04:22;30.50;37.40
45843;DHT22;31563;51.744;8.252;2023-04-28T15:06:55;29.90;37.10
45843;DHT22;31563;51.744;8.252;2023-04-28T15:09:26;29.50;37.60
45843;DHT22;31563;51.744;8.252;2023-04-28T15:11:55;29.10;38.00
45843;DHT22;31563;51.744;8.252;2023-04-28T15:14:23;28.90;38.30
45843;DHT22;31563;51.744;8.252;2023-04-28T15:16:51;28.80;38.70
45843;DHT22;31563;51.744;8.252;2023-04-28T15:19:19;28.60;38.60
45843;DHT22;31563;51.744;8.252;2023-04-28T15:21:48;28.40;38.80
45843;DHT22;31563;51.744;8.252;2023-04-28T15:24:18;28.30;39.10
45843;DHT22;31563;51.744;8.252;2023-04-28T15:26:48;28.20;39.10
45843;DHT22;31563;51.744;8.252;2023-04-28T15:29:16;28.10;39.40
45843;DHT22;31563;51.744;8.252;2023-04-28T15:31:44;27.90;39.30
45843;DHT22;31563;51.744;8.252;2023-04-28T15:34:12;27.90;39.70
45843;DHT22;31563;51.744;8.252;2023-04-28T15:36:42;27.70;39.80
45843;DHT22;31563;51.744;8.252;2023-04-28T15:39:10;27.70;40.00
45843;DHT22;31563;51.744;8.252;2023-04-28T15:41:39;27.60;40.00
45843;DHT22;31563;51.744;8.252;2023-04-28T15:44:08;27.50;40.10